KFFZ

Falcon Field Airport

Mesa, Arizona, USA
METAR KFFZ 191354Z 04011KT 10SM CLR 19/07 A3005 RMK AO2 SLP156 T01940067
Observed Flight Rules
Oct-19 @ 13:54 UTC (17 minutes ago) Visual Flight Rules
Wind Visibility Clouds
40° at 11 knots 10 miles
  • Clear skies
Temperatures Readings
Current 19°C / 66°F
Dewpoint 7°C / 45°F
Humidity 46%
Altimeter 30.05" Hg
Pressure 1015.6 hPa
Elevation 424
METAR KFFZ 191354Z 04011KT 10SM CLR 19/07 A3005 RMK AO2 SLP156 T01940067
Observed Flight Rules
Oct-19 @ 13:54 UTC
(17 minutes ago)
VFR
Wind Visibility
40° at 11 knots 10 miles
Clouds
  • Clear skies
Temperature Dewpoint
19°C / 66°F 7°C / 45°F
Humidity Altimeter Pressure
46% 30.05" Hg 1015.6 hPa